Time;durP1;ratioP1;P1;durP2;ratioP2;P2;SDS_P1;SDS_P2;PMS_P1;PMS_P2;Temp;Humidity;BMP_temperature;BMP_pressure;BME280_temperature;BME280_humidity;BME280_pressure;Samples;Min_cycle;Max_cycle;Signal;HPM_P1;HPM_P2
2024/01/11 00:00:30;;;;;;;;;;;;;;;-6.02;74.22;101697.88;4957515;28;19937;-79
2024/01/11 00:02:56;;;;;;;;;;;;;;;-6.04;74.06;101689.22;4961156;28;19935;-80
2024/01/11 00:05:23;;;;;;;;;;;;;;;-6.05;74.31;101695.13;4957419;28;19932;-80
2024/01/11 00:07:50;;;;;;;;;;;;;;;-6.04;74.49;101698.56;4957148;28;20378;-81
2024/01/11 00:10:16;;;;;;;;;;;;;;;-6.06;74.30;101700.13;4956831;28;19930;-81
2024/01/11 00:12:43;;;;;;;;;;;;;;;-6.04;74.10;101699.47;4956142;28;19933;-81
2024/01/11 00:15:09;;;;;;;;;;;;;;;-6.08;74.29;101689.78;4958282;28;19941;-80
2024/01/11 00:17:36;;;;;;;;;;;;;;;-6.07;74.24;101688.09;4954679;28;19965;-79
2024/01/11 00:20:03;;;;;;;;;;;;;;;-6.10;74.48;101691.31;4960272;28;19937;-81
2024/01/11 00:22:30;;;;;;;;;;;;;;;-6.07;74.34;101696.66;4956871;28;19981;-80
2024/01/11 00:24:57;;;;;;;;;;;;;;;-6.10;74.44;101696.44;4960579;28;19930;-81
2024/01/11 00:27:23;;;;;;;;;;;;;;;-6.09;74.64;101695.66;4956230;28;19927;-81
2024/01/11 00:29:50;;;;;;;;;;;;;;;-6.06;74.70;101706.09;4959338;28;19942;-80
2024/01/11 00:32:16;;;;;;;;;;;;;;;-6.04;74.35;101704.56;4960923;28;19934;-81
2024/01/11 00:34:43;;;;;;;;;;;;;;;-6.08;74.44;101705.13;4955808;28;20098;-81
2024/01/11 00:37:10;;;;;;;;;;;;;;;-6.01;74.57;101702.22;4955750;28;19927;-81
2024/01/11 00:39:36;;;;;;;;;;;;;;;-5.97;74.68;101701.66;4955527;28;20404;-80
2024/01/11 00:42:03;;;;;;;;;;;;;;;-6.00;74.81;101701.44;4961317;28;19926;-78
2024/01/11 00:44:30;;;;;;;;;;;;;;;-6.00;74.74;101701.44;4958444;28;19934;-81
2024/01/11 00:46:57;;;;;;;;;;;;;;;-5.96;74.48;101711.06;4956071;28;19926;-81
2024/01/11 00:49:24;;;;;;;;;;;;;;;-5.94;74.71;101695.84;4958276;28;19934;-81
2024/01/11 00:51:50;;;;;;;;;;;;;;;-5.97;75.05;101701.66;4954515;28;19958;-81
2024/01/11 00:54:17;;;;;;;;;;;;;;;-6.00;74.63;101693.75;4956638;28;20329;-79
2024/01/11 00:56:44;;;;;;;;;;;;;;;-5.98;74.72;101698.97;4957235;28;19973;-80
2024/01/11 00:59:10;;;;;;;;;;;;;;;-5.98;74.90;101699.88;4958973;28;19974;-79
2024/01/11 01:01:37;;;;;;;;;;;;;;;-5.98;74.80;101701.53;4953586;28;19997;-80
2024/01/11 01:04:03;;;;;;;;;;;;;;;-6.00;75.08;101701.44;4956263;28;19937;-81
2024/01/11 01:06:30;;;;;;;;;;;;;;;-5.90;74.76;101699.53;4954057;28;19930;-81
2024/01/11 01:08:57;;;;;;;;;;;;;;;-5.93;74.95;101706.16;4956693;28;19965;-81
2024/01/11 01:11:23;;;;;;;;;;;;;;;-5.96;74.66;101693.16;4956786;28;19927;-81
2024/01/11 01:13:50;;;;;;;;;;;;;;;-5.96;75.33;101699.97;4958855;28;19941;-79
2024/01/11 01:16:17;;;;;;;;;;;;;;;-5.92;74.92;101696.84;4958602;28;19926;-81
2024/01/11 01:18:44;;;;;;;;;;;;;;;-5.89;74.99;101698.72;4959592;28;19927;-80
2024/01/11 01:21:11;;;;;;;;;;;;;;;-5.96;75.23;101700.84;4959255;28;19929;-81
2024/01/11 01:23:37;;;;;;;;;;;;;;;-5.97;75.13;101701.66;4955278;28;19934;-81
2024/01/11 01:26:04;;;;;;;;;;;;;;;-5.92;75.20;101704.53;4959389;28;19954;-81
2024/01/11 01:28:33;;;;;;;;;;;;;;;-5.89;75.13;101711.50;4959461;28;19927;-81
2024/01/11 01:30:59;;;;;;;;;;;;;;;-5.93;75.53;101711.28;4958880;28;19936;-81
2024/01/11 01:33:26;;;;;;;;;;;;;;;-5.97;75.53;101706.75;4962756;28;19927;-81
2024/01/11 01:35:53;;;;;;;;;;;;;;;-5.97;75.61;101706.75;4959055;28;19933;-82
2024/01/11 01:38:20;;;;;;;;;;;;;;;-5.96;75.80;101713.63;4963281;28;19942;-81
2024/01/11 01:40:46;;;;;;;;;;;;;;;-5.93;75.58;101718.06;4956579;28;19999;-81
2024/01/11 01:43:13;;;;;;;;;;;;;;;-5.94;75.80;101721.41;4959380;28;19934;-79
2024/01/11 01:45:40;;;;;;;;;;;;;;;-5.97;75.79;101716.09;4960238;28;19930;-81
2024/01/11 01:48:06;;;;;;;;;;;;;;;-5.99;76.17;101728.78;4962502;28;20293;-81
2024/01/11 01:50:33;;;;;;;;;;;;;;;-5.95;76.14;101720.53;4962774;28;20390;-80
2024/01/11 01:53:00;;;;;;;;;;;;;;;-5.99;76.43;101726.22;4958262;28;19933;-80
2024/01/11 01:55:27;;;;;;;;;;;;;;;-5.98;76.45;101728.00;4961745;28;19926;-81
2024/01/11 01:57:54;;;;;;;;;;;;;;;-6.00;75.99;101734.66;4957450;28;19926;-80
2024/01/11 02:00:20;;;;;;;;;;;;;;;-5.99;76.24;101738.13;4968364;28;19926;-80
2024/01/11 02:02:49;;;;;;;;;;;;;;;-5.96;76.11;101744.31;4947612;28;20105;-81
2024/01/11 02:05:16;;;;;;;;;;;;;;;-6.05;76.46;101738.56;4952727;28;19927;-80
2024/01/11 02:07:42;;;;;;;;;;;;;;;-6.02;76.39;101737.91;4959595;28;19927;-81
2024/01/11 02:10:09;;;;;;;;;;;;;;;-6.00;76.50;101739.78;4962997;28;19926;-80
2024/01/11 02:12:39;;;;;;;;;;;;;;;-5.98;76.45;101739.88;4958661;28;19926;-79
2024/01/11 02:15:06;;;;;;;;;;;;;;;-6.04;76.51;101740.34;4962479;28;19941;-81
2024/01/11 02:17:32;;;;;;;;;;;;;;;-6.01;76.45;101739.66;4958293;28;19926;-81
2024/01/11 02:19:59;;;;;;;;;;;;;;;-5.99;76.37;101743.25;4966265;28;19926;-81
2024/01/11 02:22:29;;;;;;;;;;;;;;;-6.04;76.35;101740.34;4946143;28;19930;-79
2024/01/11 02:24:57;;;;;;;;;;;;;;;-5.99;76.51;101733.91;4961684;28;19933;-81
2024/01/11 02:27:24;;;;;;;;;;;;;;;-6.04;76.52;101732.69;4959499;28;19932;-79
2024/01/11 02:29:50;;;;;;;;;;;;;;;-6.03;76.32;101726.78;4966422;28;19927;-81
2024/01/11 02:32:17;;;;;;;;;;;;;;;-6.06;76.81;101724.00;4959517;28;19934;-81
2024/01/11 02:34:44;;;;;;;;;;;;;;;-6.03;76.74;101724.22;4962240;28;19926;-79
2024/01/11 02:37:10;;;;;;;;;;;;;;;-6.05;76.40;101720.69;4967952;28;19926;-80
2024/01/11 02:39:37;;;;;;;;;;;;;;;-5.97;76.63;101726.34;4963970;28;19927;-80
2024/01/11 02:42:04;;;;;;;;;;;;;;;-5.99;76.29;101718.56;4956636;28;20033;-80
2024/01/11 02:44:30;;;;;;;;;;;;;;;-6.03;76.28;101721.66;4957749;28;19930;-81
2024/01/11 02:46:57;;;;;;;;;;;;;;;-6.02;76.72;101718.34;4958046;28;19926;-81
2024/01/11 02:49:24;;;;;;;;;;;;;;;-6.05;76.49;101722.31;4954358;28;19954;-79
2024/01/11 02:51:50;;;;;;;;;;;;;;;-6.03;76.62;101716.56;4960430;28;19926;-81
2024/01/11 02:54:17;;;;;;;;;;;;;;;-6.03;76.75;101720.78;4953964;28;19934;-79
2024/01/11 02:56:44;;;;;;;;;;;;;;;-6.03;76.75;101724.22;4959720;28;19934;-79
2024/01/11 02:59:10;;;;;;;;;;;;;;;-6.06;76.72;101724.00;4959650;28;19935;-81
2024/01/11 03:01:37;;;;;;;;;;;;;;;-6.05;76.63;101728.34;4960118;28;19934;-81
2024/01/11 03:04:04;;;;;;;;;;;;;;;-6.00;76.54;101721.00;4955561;28;19926;-81
2024/01/11 03:06:31;;;;;;;;;;;;;;;-6.04;76.72;101719.91;4959842;28;19937;-78
2024/01/11 03:08:57;;;;;;;;;;;;;;;-6.00;76.76;101721.00;4963258;28;19990;-79
2024/01/11 03:11:24;;;;;;;;;;;;;;;-6.07;76.74;101726.44;4959686;28;19937;-81
2024/01/11 03:13:50;;;;;;;;;;;;;;;-5.99;76.78;101721.09;4961422;28;19930;-79
2024/01/11 03:16:17;;;;;;;;;;;;;;;-6.02;76.85;101728.56;4961173;28;19926;-80
2024/01/11 03:18:44;;;;;;;;;;;;;;;-6.09;77.03;101721.22;4957543;28;19934;-80
2024/01/11 03:21:10;;;;;;;;;;;;;;;-6.12;77.18;101721.00;4963515;28;19976;-79
2024/01/11 03:23:37;;;;;;;;;;;;;;;-6.15;77.08;101723.34;4957325;28;19934;-78
2024/01/11 03:26:04;;;;;;;;;;;;;;;-6.17;77.42;101720.69;4959295;28;19926;-79
2024/01/11 03:28:31;;;;;;;;;;;;;;;-6.15;77.15;101710.56;4956370;28;19937;-79
2024/01/11 03:30:58;;;;;;;;;;;;;;;-6.18;77.30;101715.47;4957646;28;19934;-79
2024/01/11 03:33:24;;;;;;;;;;;;;;;-6.20;77.58;101711.88;4956406;28;20309;-79
2024/01/11 03:35:51;;;;;;;;;;;;;;;-6.23;77.72;101711.66;4961770;28;19965;-79
2024/01/11 03:38:18;;;;;;;;;;;;;;;-6.24;77.73;101704.75;4959076;28;19937;-78
2024/01/11 03:40:44;;;;;;;;;;;;;;;-6.27;77.97;101712.22;4964695;28;19977;-79
2024/01/11 03:43:11;;;;;;;;;;;;;;;-6.25;77.85;101703.00;4960163;28;19931;-79
2024/01/11 03:45:38;;;;;;;;;;;;;;;-6.24;77.59;101709.88;4954692;28;19931;-79
2024/01/11 03:48:04;;;;;;;;;;;;;;;-6.25;77.61;101708.13;4960179;28;19937;-80
2024/01/11 03:50:31;;;;;;;;;;;;;;;-6.26;77.84;101703.78;4959092;28;19926;-80
2024/01/11 03:52:58;;;;;;;;;;;;;;;-6.26;77.75;101708.88;4958663;28;19973;-79
2024/01/11 03:55:25;;;;;;;;;;;;;;;-6.30;78.05;101698.44;4959693;28;19992;-79
2024/01/11 03:57:52;;;;;;;;;;;;;;;-6.31;77.96;101694.09;4957194;28;19935;-78
2024/01/11 04:00:19;;;;;;;;;;;;;;;-6.26;77.89;101696.13;4954341;28;19930;-79
2024/01/11 04:02:46;;;;;;;;;;;;;;;-6.34;77.99;101687.91;4961816;28;20346;-79
2024/01/11 04:05:12;;;;;;;;;;;;;;;-6.29;77.76;101697.66;4960133;28;19926;-79
2024/01/11 04:07:39;;;;;;;;;;;;;;;-6.33;77.52;101698.22;4957016;28;19941;-79
2024/01/11 04:10:06;;;;;;;;;;;;;;;-6.29;78.09;101702.75;4958744;28;20003;-79
2024/01/11 04:12:33;;;;;;;;;;;;;;;-6.26;77.92;101711.44;4956728;28;19934;-80
2024/01/11 04:14:59;;;;;;;;;;;;;;;-6.37;77.87;101703.88;4959088;28;19960;-80
2024/01/11 04:17:26;;;;;;;;;;;;;;;-6.32;77.86;101715.31;4958705;28;19926;-78
2024/01/11 04:19:53;;;;;;;;;;;;;;;-6.41;78.12;101709.53;4960681;28;19927;-80
2024/01/11 04:22:19;;;;;;;;;;;;;;;-6.41;78.25;101712.09;4957322;28;19926;-80
2024/01/11 04:24:46;;;;;;;;;;;;;;;-6.44;78.34;101704.22;4963017;28;19934;-79
2024/01/11 04:27:12;;;;;;;;;;;;;;;-6.42;78.30;101705.19;4957835;28;19930;-78
2024/01/11 04:29:39;;;;;;;;;;;;;;;-6.43;78.60;101705.09;4946151;28;19931;-79
2024/01/11 04:32:06;;;;;;;;;;;;;;;-6.42;78.24;101707.75;4962852;28;19934;-78
2024/01/11 04:34:32;;;;;;;;;;;;;;;-6.43;78.31;101710.19;4961550;28;19935;-78
2024/01/11 04:36:59;;;;;;;;;;;;;;;-6.43;78.20;101699.97;4958805;28;19927;-80
2024/01/11 04:39:26;;;;;;;;;;;;;;;-6.44;78.11;101706.75;4961811;28;19931;-78
2024/01/11 04:41:52;;;;;;;;;;;;;;;-6.43;78.58;101708.56;4960365;28;19941;-80
2024/01/11 04:44:19;;;;;;;;;;;;;;;-6.49;78.27;101726.88;4956432;28;19927;-79
2024/01/11 04:46:45;;;;;;;;;;;;;;;-6.49;78.43;101721.75;4958262;28;19988;-78
2024/01/11 04:49:12;;;;;;;;;;;;;;;-6.52;78.61;101726.59;4961277;28;19933;-77
2024/01/11 04:51:39;;;;;;;;;;;;;;;-6.53;78.57;101729.06;4956743;28;19926;-80
2024/01/11 04:54:05;;;;;;;;;;;;;;;-6.52;78.85;101729.16;4958749;28;20325;-79
2024/01/11 04:56:32;;;;;;;;;;;;;;;-6.52;78.62;101730.84;4961909;28;19942;-79
2024/01/11 04:58:59;;;;;;;;;;;;;;;-6.52;78.88;101741.06;4960650;28;19934;-78
2024/01/11 05:01:25;;;;;;;;;;;;;;;-6.55;78.83;101733.16;4957171;28;19941;-79
2024/01/11 05:03:52;;;;;;;;;;;;;;;-6.50;78.70;101742.97;4959539;28;19934;-79
2024/01/11 05:06:19;;;;;;;;;;;;;;;-6.59;78.91;101741.38;4960716;28;19994;-79
2024/01/11 05:08:46;;;;;;;;;;;;;;;-6.56;78.69;101736.50;4962592;28;19933;-78
2024/01/11 05:11:17;;;;;;;;;;;;;;;-6.55;78.76;101743.38;4960347;28;19985;-78
2024/01/11 05:13:47;;;;;;;;;;;;;;;-6.54;78.49;101745.19;4953833;28;19933;-80
2024/01/11 05:16:22;;;;;;;;;;;;;;;-6.54;78.89;101747.72;4951561;28;19926;-79
2024/01/11 05:18:49;;;;;;;;;;;;;;;-6.55;78.71;101738.28;4956410;28;20301;-79
2024/01/11 05:21:16;;;;;;;;;;;;;;;-6.54;78.64;101740.06;4957401;28;20013;-79
2024/01/11 05:23:43;;;;;;;;;;;;;;;-6.55;78.92;101739.16;4960182;28;19926;-79
2024/01/11 05:26:09;;;;;;;;;;;;;;;-6.57;78.54;101750.94;4962845;28;19973;-79
2024/01/11 05:28:38;;;;;;;;;;;;;;;-6.59;78.82;101746.47;4954531;28;19932;-79
2024/01/11 05:31:09;;;;;;;;;;;;;;;-6.57;78.55;101750.06;4958855;28;19977;-78
2024/01/11 05:33:36;;;;;;;;;;;;;;;-6.57;79.12;101744.94;4955579;28;19990;-80
2024/01/11 05:36:03;;;;;;;;;;;;;;;-6.61;79.11;101750.59;4957925;28;19933;-79
2024/01/11 05:38:29;;;;;;;;;;;;;;;-6.64;79.19;101753.81;4956210;28;19970;-79
2024/01/11 05:40:56;;;;;;;;;;;;;;;-6.68;79.24;101762.88;4960155;28;19927;-80
2024/01/11 05:43:23;;;;;;;;;;;;;;;-6.66;79.36;101760.47;4969831;28;19934;-80
2024/01/11 05:45:50;;;;;;;;;;;;;;;-6.65;79.27;101763.13;4960518;28;19935;-80
2024/01/11 05:48:16;;;;;;;;;;;;;;;-6.68;78.96;101762.00;4962402;28;19937;-78
2024/01/11 05:50:44;;;;;;;;;;;;;;;-6.67;79.22;101762.13;4956151;28;19945;-78
2024/01/11 05:53:11;;;;;;;;;;;;;;;-6.64;78.75;101758.91;4962437;28;19937;-79
2024/01/11 05:55:37;;;;;;;;;;;;;;;-6.67;78.74;101759.56;4957722;28;19926;-80
2024/01/11 05:58:05;;;;;;;;;;;;;;;-6.66;78.69;101766.47;4953884;28;20021;-80
2024/01/11 06:00:31;;;;;;;;;;;;;;;-6.68;78.93;101765.44;4953525;28;19930;-79
2024/01/11 06:02:58;;;;;;;;;;;;;;;-6.64;79.05;101772.56;4950169;28;19934;-80
2024/01/11 06:05:25;;;;;;;;;;;;;;;-6.67;78.93;101764.66;4959016;28;19938;-78
2024/01/11 06:07:52;;;;;;;;;;;;;;;-6.67;78.72;101764.66;4952718;28;19931;-79
2024/01/11 06:10:19;;;;;;;;;;;;;;;-6.69;78.66;101763.69;4958267;28;19945;-79
2024/01/11 06:12:45;;;;;;;;;;;;;;;-6.67;78.85;101767.22;4957903;28;19933;-80
2024/01/11 06:15:12;;;;;;;;;;;;;;;-6.68;78.50;101769.66;4962599;28;20050;-79
2024/01/11 06:17:39;;;;;;;;;;;;;;;-6.69;78.77;101766.22;4951287;28;19935;-80
2024/01/11 06:20:06;;;;;;;;;;;;;;;-6.69;78.51;101770.44;4892211;28;19942;-79
2024/01/11 06:22:32;;;;;;;;;;;;;;;-6.69;78.58;101771.34;4945578;28;19935;-80
2024/01/11 06:24:59;;;;;;;;;;;;;;;-6.72;78.74;101768.56;4955899;28;19950;-79
2024/01/11 06:27:26;;;;;;;;;;;;;;;-6.68;78.84;101767.97;4950699;28;20309;-78
2024/01/11 06:29:52;;;;;;;;;;;;;;;-6.69;78.90;101772.97;4955109;28;19938;-79
2024/01/11 06:32:19;;;;;;;;;;;;;;;-6.66;78.86;101781.78;4953835;28;20425;-79
2024/01/11 06:34:47;;;;;;;;;;;;;;;-6.66;78.72;101775.78;4953398;28;19926;-78
2024/01/11 06:37:14;;;;;;;;;;;;;;;-6.67;78.20;101774.88;4954276;28;19933;-80
2024/01/11 06:39:40;;;;;;;;;;;;;;;-6.65;78.46;101788.69;4956134;28;19935;-80
2024/01/11 06:42:07;;;;;;;;;;;;;;;-6.67;78.63;101800.41;4958613;28;19926;-80
2024/01/11 06:44:34;;;;;;;;;;;;;;;-6.70;78.73;101794.22;4961144;28;19927;-79
2024/01/11 06:47:03;;;;;;;;;;;;;;;-6.69;78.82;101801.06;4958923;28;19940;-80
2024/01/11 06:49:29;;;;;;;;;;;;;;;-6.71;78.84;101803.50;4960324;28;19973;-80
2024/01/11 06:51:56;;;;;;;;;;;;;;;-6.72;78.84;101811.97;4962989;28;19965;-79
2024/01/11 06:54:23;;;;;;;;;;;;;;;-6.73;78.67;101820.38;4959562;28;20022;-81
2024/01/11 06:56:50;;;;;;;;;;;;;;;-6.73;78.62;101827.16;4960598;28;19933;-79
2024/01/11 06:59:16;;;;;;;;;;;;;;;-6.73;78.41;101830.59;4959850;28;19926;-80
2024/01/11 07:01:45;;;;;;;;;;;;;;;-6.70;78.49;101830.84;4959101;28;19934;-81
2024/01/11 07:04:12;;;;;;;;;;;;;;;-6.71;78.64;101835.81;4963628;28;19930;-79
2024/01/11 07:06:39;;;;;;;;;;;;;;;-6.70;78.61;101845.28;4968963;28;19926;-79
2024/01/11 07:09:06;;;;;;;;;;;;;;;-6.68;78.19;101844.59;4966118;28;19930;-78
2024/01/11 07:11:33;;;;;;;;;;;;;;;-6.71;78.45;101846.91;4965232;28;19935;-81
2024/01/11 07:14:04;;;;;;;;;;;;;;;-6.73;78.38;101858.69;4957145;28;19933;-81
2024/01/11 07:16:31;;;;;;;;;;;;;;;-6.73;78.36;101861.25;4954379;28;19930;-81
2024/01/11 07:18:57;;;;;;;;;;;;;;;-6.73;78.56;101863.78;4958156;28;19926;-81
2024/01/11 07:21:31;;;;;;;;;;;;;;;-6.75;78.27;101862.78;4963719;28;19994;-80
2024/01/11 07:23:58;;;;;;;;;;;;;;;-6.74;78.48;101867.13;4958962;28;19927;-79
2024/01/11 07:26:25;;;;;;;;;;;;;;;-6.78;78.45;101872.75;4958027;28;19926;-81
2024/01/11 07:28:54;;;;;;;;;;;;;;;-6.77;78.61;101863.44;4960392;28;19926;-79
2024/01/11 07:31:21;;;;;;;;;;;;;;;-6.76;78.46;101866.13;4963397;28;19932;-81
2024/01/11 07:33:48;;;;;;;;;;;;;;;-6.69;78.32;101867.47;4962046;28;19936;-80
2024/01/11 07:36:15;;;;;;;;;;;;;;;-6.74;78.25;101874.78;4957352;28;19926;-80
2024/01/11 07:38:42;;;;;;;;;;;;;;;-6.80;78.49;101874.31;4963700;28;19927;-81
2024/01/11 07:41:09;;;;;;;;;;;;;;;-6.77;78.16;101874.53;4958176;28;19926;-82
2024/01/11 07:43:35;;;;;;;;;;;;;;;-6.80;78.58;101878.53;4951727;28;19969;-80
2024/01/11 07:46:18;;;;;;;;;;;;;;;-6.80;78.47;101874.31;4959980;28;20365;-80
2024/01/11 07:48:47;;;;;;;;;;;;;;;-6.77;78.44;101863.44;4953052;28;19973;-81
2024/01/11 07:51:14;;;;;;;;;;;;;;;-6.75;78.31;101875.53;4961539;28;19933;-81
2024/01/11 07:53:40;;;;;;;;;;;;;;;-6.73;78.09;101871.47;4963114;28;19927;-80
2024/01/11 07:56:08;;;;;;;;;;;;;;;-6.71;77.92;101876.69;4964267;28;19926;-80
2024/01/11 07:58:37;;;;;;;;;;;;;;;-6.67;77.92;101871.03;4961923;28;19926;-79
2024/01/11 08:01:04;;;;;;;;;;;;;;;-6.65;77.90;101872.94;4957978;28;19926;-80
2024/01/11 08:03:30;;;;;;;;;;;;;;;-6.63;77.61;101880.72;4954601;28;19933;-81
2024/01/11 08:05:57;;;;;;;;;;;;;;;-6.61;77.48;101888.50;4960985;28;19984;-80
2024/01/11 08:08:24;;;;;;;;;;;;;;;-6.61;77.82;101875.75;4955833;28;19930;-80
2024/01/11 08:10:50;;;;;;;;;;;;;;;-6.60;77.22;101885.16;4960792;28;19938;-80
2024/01/11 08:13:17;;;;;;;;;;;;;;;-6.59;77.64;101886.94;4960853;28;20016;-81
2024/01/11 08:15:44;;;;;;;;;;;;;;;-6.53;77.56;101880.66;4958859;28;19930;-80
2024/01/11 08:18:11;;;;;;;;;;;;;;;-6.52;77.20;101891.75;4956210;28;19926;-81
2024/01/11 08:20:38;;;;;;;;;;;;;;;-6.47;77.27;101890.47;4953417;28;19926;-81
2024/01/11 08:23:05;;;;;;;;;;;;;;;-6.47;77.26;101886.22;4959160;28;19927;-80
2024/01/11 08:25:31;;;;;;;;;;;;;;;-6.47;77.15;101886.22;4952526;28;19977;-81
2024/01/11 08:27:58;;;;;;;;;;;;;;;-6.40;77.09;101887.59;4961373;28;19933;-81
2024/01/11 08:30:25;;;;;;;;;;;;;;;-6.33;77.08;101892.41;4963138;28;19937;-81
2024/01/11 08:32:51;;;;;;;;;;;;;;;-6.29;76.81;101896.06;4957549;28;19974;-80
2024/01/11 08:35:18;;;;;;;;;;;;;;;-6.23;76.17;101895.66;4951224;28;19926;-78
2024/01/11 08:37:45;;;;;;;;;;;;;;;-6.23;76.60;101895.66;4951733;28;19958;-78
2024/01/11 08:40:12;;;;;;;;;;;;;;;-6.17;76.38;101893.56;4957536;28;19970;-78
2024/01/11 08:42:41;;;;;;;;;;;;;;;-6.13;76.57;101898.13;4961951;28;19969;-79
2024/01/11 08:48:06;;;;;;;;;;;;;;;-6.06;76.28;101905.50;5631261;23;20033;-78
2024/01/11 08:50:33;;;;;;;;;;;;;;;-6.06;76.04;101890.16;4951071;28;19933;-80
2024/01/11 08:53:00;;;;;;;;;;;;;;;-6.00;75.59;101889.72;4960698;28;20086;-79
2024/01/11 08:55:26;;;;;;;;;;;;;;;-5.96;75.71;101896.81;4961926;28;19949;-82
2024/01/11 08:57:53;;;;;;;;;;;;;;;-5.90;75.81;101901.50;4968423;28;19926;-88
2024/01/11 09:00:20;;;;;;;;;;;;;;;-5.90;75.85;101901.50;4952146;28;19927;-82
2024/01/11 09:02:46;;;;;;;;;;;;;;;-5.85;75.76;101895.06;4959143;28;19926;-80
2024/01/11 09:05:14;;;;;;;;;;;;;;;-5.80;75.55;101891.19;4957035;28;19927;-82
2024/01/11 09:07:40;;;;;;;;;;;;;;;-5.81;75.31;101887.75;4960676;28;19926;-81
2024/01/11 09:10:13;;;;;;;;;;;;;;;-5.75;75.21;101900.06;4954728;28;19974;-82
2024/01/11 09:12:40;;;;;;;;;;;;;;;-5.76;75.02;101894.06;4952855;28;19926;-89
2024/01/11 09:15:07;;;;;;;;;;;;;;;-5.71;74.81;101889.28;4961006;28;19927;-82
2024/01/11 09:17:34;;;;;;;;;;;;;;;-5.65;74.56;101889.78;4953149;28;19926;-82
2024/01/11 09:20:01;;;;;;;;;;;;;;;-5.62;74.51;101884.88;4949532;28;19945;-82
2024/01/11 09:22:28;;;;;;;;;;;;;;;-5.56;74.35;101879.31;4953645;28;19954;-82
2024/01/11 09:24:54;;;;;;;;;;;;;;;-5.51;74.18;101884.78;4958752;28;19973;-83
2024/01/11 09:27:22;;;;;;;;;;;;;;;-5.45;73.87;101880.09;4954160;28;19927;-81
2024/01/11 09:29:49;;;;;;;;;;;;;;;-5.35;73.73;101885.09;4959768;28;19990;-81
2024/01/11 09:32:22;;;;;;;;;;;;;;;-5.34;73.89;101886.88;4959469;28;19965;-82
2024/01/11 09:34:49;;;;;;;;;;;;;;;-5.29;73.79;101895.75;4961180;28;19941;-82
2024/01/11 09:37:16;;;;;;;;;;;;;;;-5.27;73.88;101891.66;4956729;28;20018;-82
2024/01/11 09:39:43;;;;;;;;;;;;;;;-5.19;74.08;101886.22;4957129;28;19950;-82
2024/01/11 09:42:09;;;;;;;;;;;;;;;-5.16;73.74;101894.09;4951284;28;19970;-83
2024/01/11 09:44:40;;;;;;;;;;;;;;;-5.14;73.19;101892.53;4952309;28;20478;-82
2024/01/11 09:47:08;;;;;;;;;;;;;;;-5.12;73.31;101884.19;4954844;28;19926;-82
2024/01/11 09:49:38;;;;;;;;;;;;;;;-5.03;73.36;101894.19;4951984;28;19927;-84
2024/01/11 09:52:05;;;;;;;;;;;;;;;-4.99;73.30;101901.31;4949887;28;19981;-83
2024/01/11 09:54:32;;;;;;;;;;;;;;;-4.94;73.14;101906.75;4952507;28;19982;-81
2024/01/11 09:56:59;;;;;;;;;;;;;;;-4.93;72.59;101906.88;4954384;28;19926;-83
2024/01/11 09:59:25;;;;;;;;;;;;;;;-4.86;72.49;101904.75;4953900;28;19926;-82
2024/01/11 10:01:52;;;;;;;;;;;;;;;-4.79;72.45;101902.72;4948861;28;20021;-81
2024/01/11 10:04:19;;;;;;;;;;;;;;;-4.69;72.73;101903.38;4956869;28;19926;-81
2024/01/11 10:06:47;;;;;;;;;;;;;;;-4.67;72.18;101920.63;4953497;28;19926;-83
2024/01/11 10:09:14;;;;;;;;;;;;;;;-4.62;72.07;101918.38;4961232;28;19930;-85
2024/01/11 10:11:41;;;;;;;;;;;;;;;-4.59;72.40;101911.81;4957412;28;20297;-82
2024/01/11 10:14:08;;;;;;;;;;;;;;;-4.55;71.90;101915.47;4953356;28;19961;-80
2024/01/11 10:16:35;;;;;;;;;;;;;;;-4.52;71.86;101917.38;4957646;28;19993;-83
2024/01/11 10:19:01;;;;;;;;;;;;;;;-4.43;71.86;101915.44;4962012;28;19974;-81
2024/01/11 10:21:30;;;;;;;;;;;;;;;-4.44;71.38;101918.78;4954765;28;19970;-88
2024/01/11 10:23:57;;;;;;;;;;;;;;;-4.41;71.13;101919.00;4956189;28;19937;-81
2024/01/11 10:26:24;;;;;;;;;;;;;;;-4.33;71.40;101917.88;4965599;28;19930;-84
2024/01/11 10:28:51;;;;;;;;;;;;;;;-4.23;71.13;101904.91;4944745;28;19981;-81
2024/01/11 10:31:18;;;;;;;;;;;;;;;-4.15;71.31;101901.97;4962035;28;19926;-82
2024/01/11 10:33:45;;;;;;;;;;;;;;;-4.14;70.67;101903.72;4961173;28;19934;-82
2024/01/11 10:36:12;;;;;;;;;;;;;;;-4.07;70.95;101901.69;4967931;28;20392;-82
2024/01/11 10:38:39;;;;;;;;;;;;;;;-4.03;70.61;101887.41;4955230;28;19927;-84
2024/01/11 10:41:06;;;;;;;;;;;;;;;-4.01;70.57;101880.72;4956214;28;19983;-81
2024/01/11 10:43:37;;;;;;;;;;;;;;;-4.00;70.30;101871.31;4962348;28;19933;-82
2024/01/11 10:46:06;;;;;;;;;;;;;;;-3.77;70.38;101860.03;4963174;28;20238;-81
2024/01/11 10:48:34;;;;;;;;;;;;;;;-3.74;70.46;101862.78;4959018;28;19988;-82
2024/01/11 10:51:02;;;;;;;;;;;;;;;-3.74;69.58;101870.50;4952105;28;19944;-82
2024/01/11 10:53:38;;;;;;;;;;;;;;;-3.65;69.46;101886.47;4965463;28;19926;-83
2024/01/11 10:56:07;;;;;;;;;;;;;;;-3.42;68.96;101890.53;4956644;28;19926;-82
2024/01/11 10:58:35;;;;;;;;;;;;;;;-3.41;69.64;101886.31;4961242;28;19973;-81
2024/01/11 11:01:02;;;;;;;;;;;;;;;-3.30;69.56;101890.47;4956065;28;19941;-82
2024/01/11 11:03:31;;;;;;;;;;;;;;;-3.28;68.96;101896.59;4955050;28;19941;-81
2024/01/11 11:05:58;;;;;;;;;;;;;;;-3.16;69.11;101893.91;4963479;28;19926;-81
2024/01/11 11:08:26;;;;;;;;;;;;;;;-3.21;69.17;101885.91;4962147;28;19926;-85
2024/01/11 11:10:55;;;;;;;;;;;;;;;-3.12;68.94;101871.91;4954789;28;19938;-83
2024/01/11 11:13:22;;;;;;;;;;;;;;;-3.04;68.60;101865.53;4965728;28;20001;-83
2024/01/11 11:15:49;;;;;;;;;;;;;;;-2.94;68.27;101861.88;4951413;28;19937;-82
2024/01/11 11:18:16;;;;;;;;;;;;;;;-2.85;68.52;101868.47;4940025;28;19977;-82
2024/01/11 11:20:43;;;;;;;;;;;;;;;-2.81;68.57;101861.84;4945892;28;19934;-85
2024/01/11 11:23:12;;;;;;;;;;;;;;;-2.74;68.33;101864.00;4952992;28;19981;-82
2024/01/11 11:25:42;;;;;;;;;;;;;;;-2.72;67.93;101858.94;4954826;28;19990;-82
2024/01/11 11:28:11;;;;;;;;;;;;;;;-2.70;67.49;101865.09;4961081;28;20001;-83
2024/01/11 11:30:43;;;;;;;;;;;;;;;-2.63;67.20;101862.09;4937014;29;19934;-82
2024/01/11 11:33:11;;;;;;;;;;;;;;;-2.57;67.52;101862.47;4952414;28;19926;-89
2024/01/11 11:35:38;;;;;;;;;;;;;;;-2.46;67.24;101846.00;4957622;28;19926;-81
2024/01/11 11:38:05;;;;;;;;;;;;;;;-2.43;67.51;101839.28;4956568;28;19934;-84
2024/01/11 11:40:43;;;;;;;;;;;;;;;-2.21;67.34;101846.59;4963895;28;19926;-81
2024/01/11 11:43:10;;;;;;;;;;;;;;;-2.23;67.25;101836.22;4960910;28;21364;-82
2024/01/11 11:45:37;;;;;;;;;;;;;;;-2.07;66.86;101829.38;4957399;28;19926;-82
2024/01/11 11:48:22;;;;;;;;;;;;;;;-2.19;66.45;101825.28;4955343;28;20016;-85
2024/01/11 11:51:00;;;;;;;;;;;;;;;-2.14;66.18;101823.91;4957297;28;19930;-82
2024/01/11 11:53:31;;;;;;;;;;;;;;;-1.99;65.57;101813.59;4958042;28;19926;-82
2024/01/11 11:55:57;;;;;;;;;;;;;;;-1.80;64.92;101820.69;4956460;28;19926;-84
2024/01/11 11:58:24;;;;;;;;;;;;;;;-1.72;64.84;101820.25;4955556;28;19930;-83
2024/01/11 12:00:51;;;;;;;;;;;;;;;-1.56;64.89;101820.31;4959563;28;19930;-83
2024/01/11 12:03:18;;;;;;;;;;;;;;;-1.22;65.20;101822.19;4954239;28;19927;-82
2024/01/11 12:05:46;;;;;;;;;;;;;;;-1.64;64.74;101814.72;4959272;28;20025;-83
2024/01/11 12:08:14;;;;;;;;;;;;;;;-1.33;63.87;101812.97;4952435;28;19934;-82
2024/01/11 12:10:42;;;;;;;;;;;;;;;-1.35;63.46;101805.16;4939798;28;19954;-84
2024/01/11 12:13:09;;;;;;;;;;;;;;;-1.39;63.67;101816.13;4952675;28;19935;-83
2024/01/11 12:15:36;;;;;;;;;;;;;;;-1.39;63.74;101810.97;4954700;28;20040;-83
2024/01/11 12:18:03;;;;;;;;;;;;;;;-0.87;64.09;101805.16;4954445;28;20034;-83
2024/01/11 12:20:30;;;;;;;;;;;;;;;-0.92;63.26;101809.22;4959896;28;19930;-84
2024/01/11 12:22:58;;;;;;;;;;;;;;;-0.95;63.08;101803.91;4960374;28;19962;-81
2024/01/11 12:25:25;;;;;;;;;;;;;;;-0.64;62.84;101790.91;4956269;28;19930;-80
2024/01/11 12:27:52;;;;;;;;;;;;;;;-0.90;62.18;101794.69;4954080;28;20021;-85
2024/01/11 12:30:18;;;;;;;;;;;;;;;-0.80;62.63;101791.81;4959860;28;19973;-81
2024/01/11 12:32:45;;;;;;;;;;;;;;;-0.53;62.02;101788.91;4957552;28;19970;-82
2024/01/11 12:35:13;;;;;;;;;;;;;;;-0.39;61.69;101782.78;4957680;28;19930;-81
2024/01/11 12:37:40;;;;;;;;;;;;;;;-0.38;61.51;101783.66;4959095;28;19926;-82